sensor_id;sensor_type;location;lat;lon;timestamp;P1;durP1;ratioP1;P2;durP2;ratioP2
34019;SDS011;20895;51.034;3.742;2023-06-26T00:00:45;7.80;;;4.00;;
34019;SDS011;20895;51.034;3.742;2023-06-26T00:03:12;3.95;;;2.50;;
34019;SDS011;20895;51.034;3.742;2023-06-26T00:05:40;6.55;;;2.78;;
34019;SDS011;20895;51.034;3.742;2023-06-26T00:08:05;5.25;;;3.03;;
34019;SDS011;20895;51.034;3.742;2023-06-26T00:10:30;6.28;;;2.95;;
34019;SDS011;20895;51.034;3.742;2023-06-26T00:12:56;5.37;;;2.93;;
34019;SDS011;20895;51.034;3.742;2023-06-26T00:15:21;4.82;;;2.65;;
34019;SDS011;20895;51.034;3.742;2023-06-26T00:17:46;6.85;;;2.85;;
34019;SDS011;20895;51.034;3.742;2023-06-26T00:20:12;5.65;;;2.92;;
34019;SDS011;20895;51.034;3.742;2023-06-26T00:22:37;5.60;;;2.85;;
34019;SDS011;20895;51.034;3.742;2023-06-26T00:25:06;9.15;;;3.25;;
34019;SDS011;20895;51.034;3.742;2023-06-26T00:27:31;6.65;;;3.10;;
34019;SDS011;20895;51.034;3.742;2023-06-26T00:29:56;3.90;;;2.57;;
34019;SDS011;20895;51.034;3.742;2023-06-26T00:32:21;5.40;;;2.97;;
34019;SDS011;20895;51.034;3.742;2023-06-26T00:34:47;10.95;;;3.25;;
34019;SDS011;20895;51.034;3.742;2023-06-26T00:37:12;6.80;;;3.40;;
34019;SDS011;20895;51.034;3.742;2023-06-26T00:39:37;5.93;;;2.97;;
34019;SDS011;20895;51.034;3.742;2023-06-26T00:42:02;5.10;;;3.05;;
34019;SDS011;20895;51.034;3.742;2023-06-26T00:44:28;6.35;;;3.00;;
34019;SDS011;20895;51.034;3.742;2023-06-26T00:46:53;6.85;;;3.30;;
34019;SDS011;20895;51.034;3.742;2023-06-26T00:49:18;7.47;;;3.00;;
34019;SDS011;20895;51.034;3.742;2023-06-26T00:51:44;7.78;;;2.80;;
34019;SDS011;20895;51.034;3.742;2023-06-26T00:54:09;5.05;;;2.95;;
34019;SDS011;20895;51.034;3.742;2023-06-26T00:56:34;4.78;;;2.58;;
34019;SDS011;20895;51.034;3.742;2023-06-26T00:59:00;7.32;;;3.22;;
34019;SDS011;20895;51.034;3.742;2023-06-26T01:01:25;6.57;;;3.27;;
34019;SDS011;20895;51.034;3.742;2023-06-26T01:03:50;6.38;;;2.85;;
34019;SDS011;20895;51.034;3.742;2023-06-26T01:06:16;5.88;;;3.13;;
34019;SDS011;20895;51.034;3.742;2023-06-26T01:08:42;6.60;;;2.75;;
34019;SDS011;20895;51.034;3.742;2023-06-26T01:11:08;4.22;;;2.47;;
34019;SDS011;20895;51.034;3.742;2023-06-26T01:13:34;4.60;;;2.60;;
34019;SDS011;20895;51.034;3.742;2023-06-26T01:16:00;6.40;;;2.90;;
34019;SDS011;20895;51.034;3.742;2023-06-26T01:18:26;6.97;;;2.97;;
34019;SDS011;20895;51.034;3.742;2023-06-26T01:20:52;6.28;;;2.85;;
34019;SDS011;20895;51.034;3.742;2023-06-26T01:23:29;6.38;;;2.95;;
34019;SDS011;20895;51.034;3.742;2023-06-26T01:28:20;9.93;;;3.47;;
34019;SDS011;20895;51.034;3.742;2023-06-26T01:30:48;7.00;;;2.92;;
34019;SDS011;20895;51.034;3.742;2023-06-26T01:33:15;10.57;;;4.85;;
34019;SDS011;20895;51.034;3.742;2023-06-26T01:35:40;8.35;;;3.25;;
34019;SDS011;20895;51.034;3.742;2023-06-26T01:40:38;6.53;;;3.67;;
34019;SDS011;20895;51.034;3.742;2023-06-26T01:43:04;5.93;;;3.42;;
34019;SDS011;20895;51.034;3.742;2023-06-26T01:45:29;10.73;;;4.68;;
34019;SDS011;20895;51.034;3.742;2023-06-26T01:47:57;9.75;;;3.83;;
34019;SDS011;20895;51.034;3.742;2023-06-26T01:50:24;6.85;;;3.50;;
34019;SDS011;20895;51.034;3.742;2023-06-26T01:55:32;7.97;;;3.93;;
34019;SDS011;20895;51.034;3.742;2023-06-26T01:58:02;7.55;;;3.53;;
34019;SDS011;20895;51.034;3.742;2023-06-26T02:00:27;7.90;;;3.65;;
34019;SDS011;20895;51.034;3.742;2023-06-26T02:02:52;10.40;;;3.55;;
34019;SDS011;20895;51.034;3.742;2023-06-26T02:05:18;9.40;;;4.17;;
34019;SDS011;20895;51.034;3.742;2023-06-26T02:07:43;10.00;;;4.85;;
34019;SDS011;20895;51.034;3.742;2023-06-26T02:10:11;10.82;;;4.25;;
34019;SDS011;20895;51.034;3.742;2023-06-26T02:12:37;10.18;;;3.67;;
34019;SDS011;20895;51.034;3.742;2023-06-26T02:15:02;9.95;;;4.95;;
34019;SDS011;20895;51.034;3.742;2023-06-26T02:17:28;9.77;;;4.50;;
34019;SDS011;20895;51.034;3.742;2023-06-26T02:19:53;12.48;;;4.75;;
34019;SDS011;20895;51.034;3.742;2023-06-26T02:22:18;9.55;;;4.18;;
34019;SDS011;20895;51.034;3.742;2023-06-26T02:24:44;10.10;;;4.87;;
34019;SDS011;20895;51.034;3.742;2023-06-26T02:27:09;9.50;;;4.47;;
34019;SDS011;20895;51.034;3.742;2023-06-26T02:29:34;10.27;;;4.53;;
34019;SDS011;20895;51.034;3.742;2023-06-26T02:32:00;9.35;;;4.70;;
34019;SDS011;20895;51.034;3.742;2023-06-26T02:34:25;11.43;;;4.37;;
34019;SDS011;20895;51.034;3.742;2023-06-26T02:36:50;11.13;;;4.47;;
34019;SDS011;20895;51.034;3.742;2023-06-26T02:39:15;10.63;;;3.97;;
34019;SDS011;20895;51.034;3.742;2023-06-26T02:41:41;11.32;;;4.72;;
34019;SDS011;20895;51.034;3.742;2023-06-26T02:44:06;8.68;;;3.35;;
34019;SDS011;20895;51.034;3.742;2023-06-26T02:46:31;11.52;;;4.60;;
34019;SDS011;20895;51.034;3.742;2023-06-26T02:48:57;6.93;;;3.53;;
34019;SDS011;20895;51.034;3.742;2023-06-26T02:51:22;14.57;;;4.63;;
34019;SDS011;20895;51.034;3.742;2023-06-26T02:53:47;13.07;;;4.43;;
34019;SDS011;20895;51.034;3.742;2023-06-26T02:56:12;12.80;;;4.63;;
34019;SDS011;20895;51.034;3.742;2023-06-26T02:58:38;12.40;;;4.15;;
34019;SDS011;20895;51.034;3.742;2023-06-26T03:01:03;9.02;;;4.00;;
34019;SDS011;20895;51.034;3.742;2023-06-26T03:03:28;9.98;;;3.88;;
34019;SDS011;20895;51.034;3.742;2023-06-26T03:05:53;12.70;;;4.57;;
34019;SDS011;20895;51.034;3.742;2023-06-26T03:08:19;10.70;;;3.60;;
34019;SDS011;20895;51.034;3.742;2023-06-26T03:10:44;9.13;;;3.67;;
34019;SDS011;20895;51.034;3.742;2023-06-26T03:13:09;14.13;;;4.13;;
34019;SDS011;20895;51.034;3.742;2023-06-26T03:15:35;14.70;;;4.53;;
34019;SDS011;20895;51.034;3.742;2023-06-26T03:18:00;10.73;;;4.00;;
34019;SDS011;20895;51.034;3.742;2023-06-26T03:20:26;15.15;;;4.18;;
34019;SDS011;20895;51.034;3.742;2023-06-26T03:22:51;15.63;;;4.40;;
34019;SDS011;20895;51.034;3.742;2023-06-26T03:25:16;10.27;;;3.90;;
34019;SDS011;20895;51.034;3.742;2023-06-26T03:27:42;13.30;;;5.00;;
34019;SDS011;20895;51.034;3.742;2023-06-26T03:30:07;9.45;;;3.90;;
34019;SDS011;20895;51.034;3.742;2023-06-26T03:32:32;9.90;;;3.97;;
34019;SDS011;20895;51.034;3.742;2023-06-26T03:34:57;16.57;;;4.17;;
34019;SDS011;20895;51.034;3.742;2023-06-26T03:37:23;13.20;;;4.07;;
34019;SDS011;20895;51.034;3.742;2023-06-26T03:39:48;13.05;;;4.43;;
34019;SDS011;20895;51.034;3.742;2023-06-26T03:42:13;12.52;;;4.65;;
34019;SDS011;20895;51.034;3.742;2023-06-26T03:44:38;18.90;;;4.22;;
34019;SDS011;20895;51.034;3.742;2023-06-26T03:47:04;12.03;;;3.97;;
34019;SDS011;20895;51.034;3.742;2023-06-26T03:49:29;10.10;;;3.90;;
34019;SDS011;20895;51.034;3.742;2023-06-26T03:51:54;9.90;;;3.83;;
34019;SDS011;20895;51.034;3.742;2023-06-26T03:54:19;13.60;;;4.35;;
34019;SDS011;20895;51.034;3.742;2023-06-26T03:56:45;7.97;;;3.42;;
34019;SDS011;20895;51.034;3.742;2023-06-26T03:59:10;13.50;;;4.38;;
34019;SDS011;20895;51.034;3.742;2023-06-26T04:01:36;12.38;;;3.80;;
34019;SDS011;20895;51.034;3.742;2023-06-26T04:04:01;10.75;;;3.70;;
34019;SDS011;20895;51.034;3.742;2023-06-26T04:06:26;11.75;;;3.33;;
34019;SDS011;20895;51.034;3.742;2023-06-26T04:08:51;9.27;;;3.47;;
34019;SDS011;20895;51.034;3.742;2023-06-26T04:11:17;14.67;;;4.37;;
34019;SDS011;20895;51.034;3.742;2023-06-26T04:13:42;17.23;;;4.47;;
34019;SDS011;20895;51.034;3.742;2023-06-26T04:16:07;8.18;;;2.88;;
34019;SDS011;20895;51.034;3.742;2023-06-26T04:18:32;14.57;;;4.67;;
34019;SDS011;20895;51.034;3.742;2023-06-26T04:21:08;10.93;;;3.65;;
34019;SDS011;20895;51.034;3.742;2023-06-26T04:23:33;7.43;;;3.10;;
34019;SDS011;20895;51.034;3.742;2023-06-26T04:25:59;10.90;;;3.38;;
34019;SDS011;20895;51.034;3.742;2023-06-26T04:28:24;9.18;;;3.50;;
34019;SDS011;20895;51.034;3.742;2023-06-26T04:30:50;10.57;;;3.13;;
34019;SDS011;20895;51.034;3.742;2023-06-26T04:33:15;11.52;;;3.55;;
34019;SDS011;20895;51.034;3.742;2023-06-26T04:35:40;15.95;;;3.58;;
34019;SDS011;20895;51.034;3.742;2023-06-26T04:38:05;10.75;;;3.08;;
34019;SDS011;20895;51.034;3.742;2023-06-26T04:40:31;10.88;;;3.30;;
34019;SDS011;20895;51.034;3.742;2023-06-26T04:42:56;10.88;;;3.22;;
34019;SDS011;20895;51.034;3.742;2023-06-26T04:45:21;8.77;;;2.65;;
34019;SDS011;20895;51.034;3.742;2023-06-26T04:47:46;6.65;;;3.03;;
34019;SDS011;20895;51.034;3.742;2023-06-26T04:50:12;8.50;;;2.60;;
34019;SDS011;20895;51.034;3.742;2023-06-26T04:52:37;10.87;;;2.73;;
34019;SDS011;20895;51.034;3.742;2023-06-26T04:55:02;10.48;;;4.20;;
34019;SDS011;20895;51.034;3.742;2023-06-26T04:57:28;8.93;;;3.25;;
34019;SDS011;20895;51.034;3.742;2023-06-26T04:59:53;11.85;;;3.00;;
34019;SDS011;20895;51.034;3.742;2023-06-26T05:02:18;8.60;;;2.83;;
34019;SDS011;20895;51.034;3.742;2023-06-26T05:04:43;8.93;;;2.83;;
34019;SDS011;20895;51.034;3.742;2023-06-26T05:07:09;7.70;;;2.55;;
34019;SDS011;20895;51.034;3.742;2023-06-26T05:09:34;9.88;;;2.92;;
34019;SDS011;20895;51.034;3.742;2023-06-26T05:12:00;7.50;;;2.60;;
34019;SDS011;20895;51.034;3.742;2023-06-26T05:14:26;11.35;;;3.03;;
34019;SDS011;20895;51.034;3.742;2023-06-26T05:16:54;9.02;;;2.80;;
34019;SDS011;20895;51.034;3.742;2023-06-26T05:19:19;7.80;;;2.70;;
34019;SDS011;20895;51.034;3.742;2023-06-26T05:21:45;10.65;;;3.30;;
34019;SDS011;20895;51.034;3.742;2023-06-26T05:24:10;5.97;;;2.50;;
34019;SDS011;20895;51.034;3.742;2023-06-26T05:26:36;8.70;;;2.53;;
34019;SDS011;20895;51.034;3.742;2023-06-26T05:29:02;10.02;;;2.47;;
34019;SDS011;20895;51.034;3.742;2023-06-26T05:31:27;9.07;;;2.78;;
34019;SDS011;20895;51.034;3.742;2023-06-26T05:33:52;10.73;;;2.63;;
34019;SDS011;20895;51.034;3.742;2023-06-26T05:36:20;8.70;;;2.75;;
34019;SDS011;20895;51.034;3.742;2023-06-26T05:38:47;9.77;;;2.65;;
34019;SDS011;20895;51.034;3.742;2023-06-26T05:41:13;9.77;;;2.10;;
34019;SDS011;20895;51.034;3.742;2023-06-26T05:43:39;9.57;;;2.50;;
34019;SDS011;20895;51.034;3.742;2023-06-26T05:46:04;11.50;;;2.85;;
34019;SDS011;20895;51.034;3.742;2023-06-26T05:48:29;9.57;;;2.40;;
34019;SDS011;20895;51.034;3.742;2023-06-26T05:50:55;5.80;;;2.45;;
34019;SDS011;20895;51.034;3.742;2023-06-26T05:53:20;6.70;;;2.00;;
34019;SDS011;20895;51.034;3.742;2023-06-26T05:55:45;9.23;;;2.83;;
34019;SDS011;20895;51.034;3.742;2023-06-26T05:58:11;8.95;;;2.72;;
34019;SDS011;20895;51.034;3.742;2023-06-26T06:00:37;6.43;;;2.08;;
34019;SDS011;20895;51.034;3.742;2023-06-26T06:03:02;5.63;;;2.40;;
34019;SDS011;20895;51.034;3.742;2023-06-26T06:05:28;10.48;;;2.60;;
34019;SDS011;20895;51.034;3.742;2023-06-26T06:07:53;10.18;;;2.22;;
34019;SDS011;20895;51.034;3.742;2023-06-26T06:10:18;9.53;;;2.70;;
34019;SDS011;20895;51.034;3.742;2023-06-26T06:12:43;4.72;;;2.00;;
34019;SDS011;20895;51.034;3.742;2023-06-26T06:15:09;8.80;;;2.22;;
34019;SDS011;20895;51.034;3.742;2023-06-26T06:17:36;6.93;;;2.45;;
34019;SDS011;20895;51.034;3.742;2023-06-26T06:20:01;7.57;;;2.50;;
34019;SDS011;20895;51.034;3.742;2023-06-26T06:22:27;6.78;;;2.00;;
34019;SDS011;20895;51.034;3.742;2023-06-26T06:24:52;7.55;;;2.15;;
34019;SDS011;20895;51.034;3.742;2023-06-26T06:27:17;6.07;;;2.40;;
34019;SDS011;20895;51.034;3.742;2023-06-26T06:29:42;8.50;;;2.13;;
34019;SDS011;20895;51.034;3.742;2023-06-26T06:32:08;6.25;;;2.10;;
34019;SDS011;20895;51.034;3.742;2023-06-26T06:34:33;6.88;;;2.67;;
34019;SDS011;20895;51.034;3.742;2023-06-26T06:36:58;8.82;;;3.00;;
34019;SDS011;20895;51.034;3.742;2023-06-26T06:39:24;6.68;;;1.85;;
34019;SDS011;20895;51.034;3.742;2023-06-26T06:41:49;7.35;;;2.90;;
34019;SDS011;20895;51.034;3.742;2023-06-26T06:44:14;7.70;;;2.30;;
34019;SDS011;20895;51.034;3.742;2023-06-26T06:46:39;8.23;;;2.33;;
34019;SDS011;20895;51.034;3.742;2023-06-26T06:49:05;9.93;;;1.98;;
34019;SDS011;20895;51.034;3.742;2023-06-26T06:51:30;7.35;;;2.33;;
34019;SDS011;20895;51.034;3.742;2023-06-26T06:53:55;4.87;;;1.57;;
34019;SDS011;20895;51.034;3.742;2023-06-26T06:56:21;5.88;;;1.60;;
34019;SDS011;20895;51.034;3.742;2023-06-26T06:58:46;5.57;;;1.90;;
34019;SDS011;20895;51.034;3.742;2023-06-26T07:01:14;6.70;;;1.85;;
34019;SDS011;20895;51.034;3.742;2023-06-26T07:03:40;8.32;;;1.77;;
34019;SDS011;20895;51.034;3.742;2023-06-26T07:06:05;6.07;;;1.60;;
34019;SDS011;20895;51.034;3.742;2023-06-26T07:08:30;5.28;;;1.55;;
34019;SDS011;20895;51.034;3.742;2023-06-26T07:10:56;2.80;;;1.40;;
34019;SDS011;20895;51.034;3.742;2023-06-26T07:13:24;4.95;;;1.23;;
34019;SDS011;20895;51.034;3.742;2023-06-26T07:15:50;5.30;;;1.40;;
34019;SDS011;20895;51.034;3.742;2023-06-26T07:18:15;4.25;;;1.45;;
34019;SDS011;20895;51.034;3.742;2023-06-26T07:20:40;5.05;;;1.42;;
34019;SDS011;20895;51.034;3.742;2023-06-26T07:23:06;5.82;;;2.63;;
34019;SDS011;20895;51.034;3.742;2023-06-26T07:25:31;5.75;;;1.73;;
34019;SDS011;20895;51.034;3.742;2023-06-26T07:27:57;3.03;;;1.33;;
34019;SDS011;20895;51.034;3.742;2023-06-26T07:30:22;4.82;;;1.50;;
34019;SDS011;20895;51.034;3.742;2023-06-26T07:32:49;5.43;;;1.52;;
34019;SDS011;20895;51.034;3.742;2023-06-26T07:35:14;5.82;;;1.30;;
34019;SDS011;20895;51.034;3.742;2023-06-26T07:37:40;4.20;;;1.60;;
34019;SDS011;20895;51.034;3.742;2023-06-26T07:40:06;8.48;;;1.83;;
34019;SDS011;20895;51.034;3.742;2023-06-26T07:42:31;4.57;;;1.45;;
34019;SDS011;20895;51.034;3.742;2023-06-26T07:44:57;8.75;;;1.67;;
34019;SDS011;20895;51.034;3.742;2023-06-26T07:47:22;4.72;;;1.52;;
34019;SDS011;20895;51.034;3.742;2023-06-26T07:49:47;4.00;;;1.52;;
34019;SDS011;20895;51.034;3.742;2023-06-26T07:52:12;8.13;;;1.63;;
34019;SDS011;20895;51.034;3.742;2023-06-26T07:54:40;5.85;;;1.30;;
34019;SDS011;20895;51.034;3.742;2023-06-26T07:57:05;4.20;;;1.30;;
34019;SDS011;20895;51.034;3.742;2023-06-26T07:59:37;7.87;;;2.13;;
34019;SDS011;20895;51.034;3.742;2023-06-26T08:02:05;4.35;;;1.65;;
34019;SDS011;20895;51.034;3.742;2023-06-26T08:04:31;4.07;;;1.35;;
34019;SDS011;20895;51.034;3.742;2023-06-26T08:06:58;4.05;;;1.45;;
34019;SDS011;20895;51.034;3.742;2023-06-26T08:09:24;4.68;;;1.38;;
34019;SDS011;20895;51.034;3.742;2023-06-26T08:11:49;3.55;;;1.15;;
34019;SDS011;20895;51.034;3.742;2023-06-26T08:14:15;5.93;;;1.38;;
34019;SDS011;20895;51.034;3.742;2023-06-26T08:16:40;6.95;;;1.73;;
34019;SDS011;20895;51.034;3.742;2023-06-26T08:19:06;4.25;;;1.38;;
34019;SDS011;20895;51.034;3.742;2023-06-26T08:21:32;2.55;;;1.08;;
34019;SDS011;20895;51.034;3.742;2023-06-26T08:23:57;3.83;;;0.88;;
34019;SDS011;20895;51.034;3.742;2023-06-26T08:26:23;7.55;;;1.90;;
34019;SDS011;20895;51.034;3.742;2023-06-26T08:28:48;4.07;;;1.08;;
34019;SDS011;20895;51.034;3.742;2023-06-26T08:31:13;4.22;;;1.23;;
34019;SDS011;20895;51.034;3.742;2023-06-26T08:33:38;7.95;;;1.85;;
34019;SDS011;20895;51.034;3.742;2023-06-26T08:36:04;4.82;;;1.60;;
34019;SDS011;20895;51.034;3.742;2023-06-26T08:38:29;4.63;;;1.50;;
34019;SDS011;20895;51.034;3.742;2023-06-26T08:40:54;3.75;;;1.25;;
34019;SDS011;20895;51.034;3.742;2023-06-26T08:43:19;3.17;;;1.65;;
34019;SDS011;20895;51.034;3.742;2023-06-26T08:45:46;4.45;;;1.20;;
34019;SDS011;20895;51.034;3.742;2023-06-26T08:48:16;6.07;;;1.05;;
34019;SDS011;20895;51.034;3.742;2023-06-26T08:50:41;4.40;;;1.50;;
34019;SDS011;20895;51.034;3.742;2023-06-26T08:55:38;3.90;;;1.30;;
34019;SDS011;20895;51.034;3.742;2023-06-26T08:58:04;3.63;;;1.20;;
34019;SDS011;20895;51.034;3.742;2023-06-26T09:00:30;7.57;;;1.50;;
34019;SDS011;20895;51.034;3.742;2023-06-26T09:02:56;2.75;;;1.30;;
34019;SDS011;20895;51.034;3.742;2023-06-26T09:05:21;2.08;;;0.73;;
34019;SDS011;20895;51.034;3.742;2023-06-26T09:07:46;4.63;;;1.00;;
34019;SDS011;20895;51.034;3.742;2023-06-26T09:10:12;4.97;;;1.33;;
34019;SDS011;20895;51.034;3.742;2023-06-26T09:12:37;3.97;;;1.27;;
34019;SDS011;20895;51.034;3.742;2023-06-26T09:15:03;5.00;;;1.15;;
34019;SDS011;20895;51.034;3.742;2023-06-26T09:17:29;3.15;;;1.00;;
34019;SDS011;20895;51.034;3.742;2023-06-26T09:19:54;7.15;;;1.42;;
34019;SDS011;20895;51.034;3.742;2023-06-26T09:22:19;4.07;;;1.42;;
34019;SDS011;20895;51.034;3.742;2023-06-26T09:24:45;4.93;;;1.00;;
34019;SDS011;20895;51.034;3.742;2023-06-26T09:27:10;3.13;;;1.35;;
34019;SDS011;20895;51.034;3.742;2023-06-26T09:29:36;4.43;;;1.42;;
34019;SDS011;20895;51.034;3.742;2023-06-26T09:32:01;3.30;;;0.80;;
34019;SDS011;20895;51.034;3.742;2023-06-26T09:34:30;3.38;;;1.30;;
34019;SDS011;20895;51.034;3.742;2023-06-26T09:36:55;4.78;;;0.90;;
34019;SDS011;20895;51.034;3.742;2023-06-26T09:39:20;3.37;;;1.00;;
34019;SDS011;20895;51.034;3.742;2023-06-26T09:41:46;3.05;;;1.35;;
34019;SDS011;20895;51.034;3.742;2023-06-26T09:44:14;3.65;;;1.17;;
34019;SDS011;20895;51.034;3.742;2023-06-26T09:46:40;4.75;;;1.25;;
34019;SDS011;20895;51.034;3.742;2023-06-26T09:49:09;2.25;;;0.80;;
34019;SDS011;20895;51.034;3.742;2023-06-26T09:51:38;3.50;;;1.20;;
34019;SDS011;20895;51.034;3.742;2023-06-26T09:54:04;3.85;;;1.40;;
34019;SDS011;20895;51.034;3.742;2023-06-26T09:56:29;3.72;;;0.90;;
34019;SDS011;20895;51.034;3.742;2023-06-26T09:58:55;4.85;;;1.40;;
34019;SDS011;20895;51.034;3.742;2023-06-26T10:01:22;2.83;;;1.00;;
34019;SDS011;20895;51.034;3.742;2023-06-26T10:03:47;4.10;;;1.10;;
34019;SDS011;20895;51.034;3.742;2023-06-26T10:06:12;4.57;;;1.65;;
34019;SDS011;20895;51.034;3.742;2023-06-26T10:08:39;4.18;;;1.10;;
34019;SDS011;20895;51.034;3.742;2023-06-26T10:11:04;3.28;;;1.10;;
34019;SDS011;20895;51.034;3.742;2023-06-26T10:13:38;3.25;;;0.90;;
34019;SDS011;20895;51.034;3.742;2023-06-26T10:16:04;4.70;;;1.27;;
34019;SDS011;20895;51.034;3.742;2023-06-26T10:18:32;3.72;;;1.13;;
34019;SDS011;20895;51.034;3.742;2023-06-26T10:20:58;5.03;;;1.20;;
34019;SDS011;20895;51.034;3.742;2023-06-26T10:23:24;2.20;;;0.90;;
34019;SDS011;20895;51.034;3.742;2023-06-26T10:25:51;7.13;;;1.45;;
34019;SDS011;20895;51.034;3.742;2023-06-26T10:28:16;4.60;;;1.20;;
34019;SDS011;20895;51.034;3.742;2023-06-26T10:30:42;3.38;;;0.90;;
34019;SDS011;20895;51.034;3.742;2023-06-26T10:33:09;3.30;;;1.00;;
34019;SDS011;20895;51.034;3.742;2023-06-26T10:35:40;2.95;;;1.00;;
34019;SDS011;20895;51.034;3.742;2023-06-26T10:38:05;6.13;;;1.30;;
34019;SDS011;20895;51.034;3.742;2023-06-26T10:40:41;6.38;;;1.27;;
34019;SDS011;20895;51.034;3.742;2023-06-26T10:43:07;5.93;;;1.30;;
34019;SDS011;20895;51.034;3.742;2023-06-26T10:45:33;5.15;;;1.10;;
34019;SDS011;20895;51.034;3.742;2023-06-26T10:47:58;3.42;;;1.00;;
34019;SDS011;20895;51.034;3.742;2023-06-26T10:55:33;6.47;;;1.20;;
34019;SDS011;20895;51.034;3.742;2023-06-26T10:57:58;2.43;;;1.10;;
34019;SDS011;20895;51.034;3.742;2023-06-26T11:00:26;3.87;;;1.30;;
34019;SDS011;20895;51.034;3.742;2023-06-26T11:02:51;4.40;;;1.17;;
34019;SDS011;20895;51.034;3.742;2023-06-26T11:05:27;3.05;;;1.30;;
34019;SDS011;20895;51.034;3.742;2023-06-26T11:08:05;4.53;;;1.17;;
34019;SDS011;20895;51.034;3.742;2023-06-26T11:10:47;3.03;;;1.42;;
34019;SDS011;20895;51.034;3.742;2023-06-26T11:13:12;1.80;;;1.08;;
34019;SDS011;20895;51.034;3.742;2023-06-26T11:15:38;4.32;;;0.93;;
34019;SDS011;20895;51.034;3.742;2023-06-26T11:18:03;3.80;;;1.27;;
34019;SDS011;20895;51.034;3.742;2023-06-26T11:20:28;3.30;;;1.15;;
34019;SDS011;20895;51.034;3.742;2023-06-26T11:22:54;4.28;;;0.98;;
34019;SDS011;20895;51.034;3.742;2023-06-26T11:25:20;3.72;;;1.10;;
34019;SDS011;20895;51.034;3.742;2023-06-26T11:27:45;1.83;;;0.90;;
34019;SDS011;20895;51.034;3.742;2023-06-26T11:30:11;4.97;;;1.30;;
34019;SDS011;20895;51.034;3.742;2023-06-26T11:32:39;3.00;;;1.45;;
34019;SDS011;20895;51.034;3.742;2023-06-26T11:35:05;2.83;;;1.10;;
34019;SDS011;20895;51.034;3.742;2023-06-26T11:37:31;5.18;;;1.30;;
34019;SDS011;20895;51.034;3.742;2023-06-26T11:39:57;4.47;;;1.30;;
34019;SDS011;20895;51.034;3.742;2023-06-26T11:42:23;3.35;;;1.20;;
34019;SDS011;20895;51.034;3.742;2023-06-26T11:44:49;3.58;;;1.02;;
34019;SDS011;20895;51.034;3.742;2023-06-26T11:47:18;3.08;;;1.20;;
34019;SDS011;20895;51.034;3.742;2023-06-26T11:49:44;3.70;;;1.17;;
34019;SDS011;20895;51.034;3.742;2023-06-26T11:52:09;7.20;;;1.20;;
34019;SDS011;20895;51.034;3.742;2023-06-26T11:54:34;4.70;;;1.50;;
34019;SDS011;20895;51.034;3.742;2023-06-26T11:57:00;4.23;;;1.00;;
34019;SDS011;20895;51.034;3.742;2023-06-26T11:59:38;4.85;;;1.10;;
34019;SDS011;20895;51.034;3.742;2023-06-26T12:02:10;4.25;;;1.38;;
34019;SDS011;20895;51.034;3.742;2023-06-26T12:04:36;2.92;;;1.30;;
34019;SDS011;20895;51.034;3.742;2023-06-26T12:07:01;3.35;;;1.30;;
34019;SDS011;20895;51.034;3.742;2023-06-26T12:09:29;2.28;;;1.38;;
34019;SDS011;20895;51.034;3.742;2023-06-26T12:11:55;3.30;;;1.20;;
34019;SDS011;20895;51.034;3.742;2023-06-26T12:14:21;4.32;;;1.15;;
34019;SDS011;20895;51.034;3.742;2023-06-26T12:16:47;3.38;;;1.13;;
34019;SDS011;20895;51.034;3.742;2023-06-26T12:19:12;2.08;;;0.90;;
34019;SDS011;20895;51.034;3.742;2023-06-26T12:24:05;4.65;;;1.27;;
34019;SDS011;20895;51.034;3.742;2023-06-26T12:26:31;3.47;;;1.30;;
34019;SDS011;20895;51.034;3.742;2023-06-26T12:29:28;3.88;;;1.25;;
34019;SDS011;20895;51.034;3.742;2023-06-26T12:31:51;4.20;;;1.52;;
34019;SDS011;20895;51.034;3.742;2023-06-26T12:34:18;3.90;;;1.27;;
34019;SDS011;20895;51.034;3.742;2023-06-26T12:36:44;7.57;;;1.38;;
34019;SDS011;20895;51.034;3.742;2023-06-26T12:39:10;2.50;;;0.88;;
34019;SDS011;20895;51.034;3.742;2023-06-26T12:41:59;4.13;;;1.10;;
34019;SDS011;20895;51.034;3.742;2023-06-26T12:44:26;3.10;;;1.73;;
34019;SDS011;20895;51.034;3.742;2023-06-26T12:46:59;4.20;;;1.02;;
34019;SDS011;20895;51.034;3.742;2023-06-26T12:51:56;4.00;;;1.00;;
34019;SDS011;20895;51.034;3.742;2023-06-26T12:54:21;4.70;;;1.08;;
34019;SDS011;20895;51.034;3.742;2023-06-26T12:56:47;5.03;;;1.00;;
34019;SDS011;20895;51.034;3.742;2023-06-26T12:59:12;3.83;;;0.90;;
34019;SDS011;20895;51.034;3.742;2023-06-26T13:01:37;4.43;;;1.07;;
34019;SDS011;20895;51.034;3.742;2023-06-26T13:04:02;3.53;;;0.88;;
34019;SDS011;20895;51.034;3.742;2023-06-26T13:06:28;3.35;;;1.10;;
34019;SDS011;20895;51.034;3.742;2023-06-26T13:08:54;2.97;;;1.00;;
34019;SDS011;20895;51.034;3.742;2023-06-26T13:11:19;3.90;;;1.30;;
34019;SDS011;20895;51.034;3.742;2023-06-26T13:13:44;6.10;;;1.45;;
34019;SDS011;20895;51.034;3.742;2023-06-26T13:16:09;4.82;;;1.20;;
34019;SDS011;20895;51.034;3.742;2023-06-26T13:18:35;2.40;;;0.98;;
34019;SDS011;20895;51.034;3.742;2023-06-26T13:21:00;5.00;;;1.10;;
34019;SDS011;20895;51.034;3.742;2023-06-26T13:23:25;5.47;;;0.90;;
34019;SDS011;20895;51.034;3.742;2023-06-26T13:25:51;3.22;;;1.15;;
34019;SDS011;20895;51.034;3.742;2023-06-26T13:28:16;3.25;;;1.63;;
34019;SDS011;20895;51.034;3.742;2023-06-26T13:30:41;5.22;;;2.53;;
34019;SDS011;20895;51.034;3.742;2023-06-26T13:33:07;2.10;;;0.87;;
34019;SDS011;20895;51.034;3.742;2023-06-26T13:35:32;1.50;;;0.82;;
34019;SDS011;20895;51.034;3.742;2023-06-26T13:37:57;3.97;;;1.00;;
34019;SDS011;20895;51.034;3.742;2023-06-26T13:40:23;3.90;;;1.50;;
34019;SDS011;20895;51.034;3.742;2023-06-26T13:42:48;6.63;;;1.40;;
34019;SDS011;20895;51.034;3.742;2023-06-26T13:45:13;2.92;;;0.95;;
34019;SDS011;20895;51.034;3.742;2023-06-26T13:47:39;8.25;;;1.92;;
34019;SDS011;20895;51.034;3.742;2023-06-26T13:50:07;3.03;;;1.33;;
34019;SDS011;20895;51.034;3.742;2023-06-26T13:52:32;4.85;;;1.10;;
34019;SDS011;20895;51.034;3.742;2023-06-26T13:54:57;3.40;;;1.17;;
34019;SDS011;20895;51.034;3.742;2023-06-26T13:57:22;4.23;;;1.10;;
34019;SDS011;20895;51.034;3.742;2023-06-26T13:59:48;4.50;;;0.93;;
34019;SDS011;20895;51.034;3.742;2023-06-26T14:02:13;4.37;;;1.17;;
34019;SDS011;20895;51.034;3.742;2023-06-26T14:04:38;1.60;;;0.70;;
34019;SDS011;20895;51.034;3.742;2023-06-26T14:07:04;3.08;;;1.27;;
34019;SDS011;20895;51.034;3.742;2023-06-26T14:09:29;3.20;;;1.02;;
34019;SDS011;20895;51.034;3.742;2023-06-26T14:11:54;2.23;;;0.67;;
34019;SDS011;20895;51.034;3.742;2023-06-26T14:14:20;2.15;;;0.85;;
34019;SDS011;20895;51.034;3.742;2023-06-26T14:16:45;2.47;;;1.17;;
34019;SDS011;20895;51.034;3.742;2023-06-26T14:19:10;2.30;;;0.70;;
34019;SDS011;20895;51.034;3.742;2023-06-26T14:21:40;2.35;;;0.98;;
34019;SDS011;20895;51.034;3.742;2023-06-26T14:24:05;2.78;;;1.00;;
34019;SDS011;20895;51.034;3.742;2023-06-26T14:26:31;3.08;;;0.85;;
34019;SDS011;20895;51.034;3.742;2023-06-26T14:28:57;3.58;;;0.98;;
34019;SDS011;20895;51.034;3.742;2023-06-26T14:31:22;1.70;;;0.65;;
34019;SDS011;20895;51.034;3.742;2023-06-26T14:33:47;3.25;;;0.98;;
34019;SDS011;20895;51.034;3.742;2023-06-26T14:36:13;4.97;;;1.30;;
34019;SDS011;20895;51.034;3.742;2023-06-26T14:38:38;4.63;;;1.27;;
34019;SDS011;20895;51.034;3.742;2023-06-26T14:41:03;3.43;;;1.17;;
34019;SDS011;20895;51.034;3.742;2023-06-26T14:43:28;6.00;;;0.88;;
34019;SDS011;20895;51.034;3.742;2023-06-26T14:45:54;3.25;;;1.27;;
34019;SDS011;20895;51.034;3.742;2023-06-26T14:48:19;3.30;;;1.00;;
34019;SDS011;20895;51.034;3.742;2023-06-26T14:50:45;2.95;;;0.90;;
34019;SDS011;20895;51.034;3.742;2023-06-26T14:53:10;2.17;;;1.00;;
34019;SDS011;20895;51.034;3.742;2023-06-26T14:55:35;2.53;;;0.77;;
34019;SDS011;20895;51.034;3.742;2023-06-26T14:58:00;1.93;;;0.80;;